createdAt,value
2019-04-09T00:04:41.841Z,8.80
2019-04-09T00:10:12.069Z,8.70
2019-04-09T00:15:42.283Z,8.70
2019-04-09T00:21:12.578Z,8.70
2019-04-09T00:26:49.036Z,8.80
2019-04-09T00:32:14.218Z,8.80
2019-04-09T00:37:43.662Z,8.80
2019-04-09T00:43:12.942Z,8.80
2019-04-09T00:48:42.369Z,8.80
2019-04-09T00:54:12.738Z,8.80
2019-04-09T00:59:42.246Z,8.80
2019-04-09T01:05:11.565Z,8.80
2019-04-09T01:10:40.985Z,8.70
2019-04-09T01:16:10.557Z,8.70
2019-04-09T01:21:39.931Z,8.70
2019-04-09T01:27:26.647Z,8.60
2019-04-09T01:33:00.247Z,8.60
2019-04-09T01:38:38.411Z,8.60
2019-04-09T01:44:09.477Z,8.60
2019-04-09T01:49:40.365Z,8.60
2019-04-09T01:55:23.318Z,8.60
2019-04-09T02:01:10.557Z,8.60
2019-04-09T02:06:47.563Z,8.60
2019-04-09T02:12:22.233Z,8.70
2019-04-09T02:18:05.326Z,8.60
2019-04-09T02:23:41.218Z,8.70
2019-04-09T02:29:15.173Z,8.70
2019-04-09T02:34:50.052Z,8.70
2019-04-09T02:40:21.053Z,8.80
2019-04-09T02:46:07.880Z,8.80
2019-04-09T02:51:55.063Z,8.90
2019-04-09T02:57:46.456Z,8.80
2019-04-09T03:03:17.093Z,8.80
2019-04-09T03:08:48.068Z,8.80
2019-04-09T03:14:22.141Z,8.80
2019-04-09T03:19:53.801Z,8.80
2019-04-09T03:25:36.877Z,8.80
2019-04-09T03:31:27.582Z,8.80
2019-04-09T03:36:58.580Z,8.70
2019-04-09T03:42:46.697Z,8.70
2019-04-09T03:48:24.353Z,8.70
2019-04-09T03:53:55.777Z,8.70
2019-04-09T03:59:32.225Z,8.60
2019-04-09T04:05:22.282Z,8.50
2019-04-09T04:11:11.470Z,8.50
2019-04-09T04:16:51.214Z,8.50
2019-04-09T04:22:37.705Z,8.50
2019-04-09T04:28:25.975Z,8.60
2019-04-09T04:33:50.179Z,8.60
2019-04-09T04:39:41.842Z,8.60
2019-04-09T04:45:22.118Z,8.60
2019-04-09T04:50:53.023Z,8.60
2019-04-09T04:56:30.141Z,8.60
2019-04-09T05:02:03.713Z,8.70
2019-04-09T05:07:43.392Z,8.60
2019-04-09T05:13:14.452Z,8.50
2019-04-09T05:18:48.137Z,8.50
2019-04-09T05:24:35.195Z,8.60
2019-04-09T05:30:10.741Z,8.60
2019-04-09T05:35:45.464Z,8.70
2019-04-09T05:41:32.512Z,8.90
2019-04-09T05:47:06.184Z,9.00
2019-04-09T05:52:43.045Z,9.20
2019-04-09T05:58:29.735Z,9.20
2019-04-09T06:04:01.195Z,9.40
2019-04-09T06:09:31.226Z,9.60
2019-04-09T06:15:00.951Z,9.70
2019-04-09T06:20:30.265Z,9.80
2019-04-09T06:26:00.106Z,9.90
2019-04-09T06:31:29.518Z,9.90
2019-04-09T06:37:17.007Z,10.00
2019-04-09T06:43:00.965Z,10.20
2019-04-09T06:48:37.787Z,10.40
2019-04-09T06:54:24.800Z,10.40
2019-04-09T07:00:11.140Z,10.40
2019-04-09T07:05:47.761Z,10.60
2019-04-09T07:11:28.626Z,10.70
2019-04-09T07:17:18.327Z,11.10
2019-04-09T07:22:49.425Z,11.20
2019-04-09T07:28:37.902Z,11.20
2019-04-09T07:34:11.776Z,11.20
2019-04-09T07:39:45.948Z,11.30
2019-04-09T07:45:38.567Z,11.60
2019-04-09T07:51:21.167Z,11.90
2019-04-09T07:56:52.691Z,12.50
2019-04-09T08:02:29.181Z,12.80
2019-04-09T08:08:04.872Z,13.00
2019-04-09T08:13:54.697Z,13.30
2019-04-09T08:19:41.045Z,13.60
2019-04-09T08:25:12.600Z,13.90
2019-04-09T08:30:47.319Z,14.20
2019-04-09T08:36:28.100Z,14.20
2019-04-09T08:42:11.323Z,14.30
2019-04-09T08:47:46.522Z,14.20
2019-04-09T08:53:18.846Z,14.20
2019-04-09T08:59:07.138Z,14.10
2019-04-09T09:04:51.927Z,14.10
2019-04-09T09:10:18.875Z,14.30
2019-04-09T09:15:53.068Z,14.60
2019-04-09T09:21:34.832Z,14.90
2019-04-09T09:27:05.084Z,15.20
2019-04-09T09:32:41.739Z,15.30
2019-04-09T09:38:33.021Z,15.30
2019-04-09T09:44:04.723Z,15.40
2019-04-09T09:49:36.660Z,15.40
2019-04-09T09:55:17.864Z,15.20
2019-04-09T10:00:48.955Z,15.40
2019-04-09T10:06:31.596Z,15.80
2019-04-09T10:12:06.667Z,15.80
2019-04-09T10:17:40.357Z,15.70
2019-04-09T10:23:14.256Z,15.50
2019-04-09T10:28:50.310Z,15.30
2019-04-09T10:34:37.995Z,15.30
2019-04-09T10:40:13.924Z,15.20
2019-04-09T10:45:44.974Z,15.10
2019-04-09T10:51:15.913Z,15.30
2019-04-09T10:56:51.481Z,15.30
2019-04-09T11:02:28.272Z,15.50
2019-04-09T11:08:01.071Z,15.50
2019-04-09T11:13:38.324Z,15.50
2019-04-09T11:19:26.446Z,15.50
2019-04-09T11:25:04.313Z,15.60
2019-04-09T11:30:48.123Z,15.80
2019-04-09T11:36:31.056Z,16.10
2019-04-09T11:42:15.135Z,16.50
2019-04-09T11:47:58.059Z,16.40
2019-04-09T11:53:41.883Z,16.30
2019-04-09T11:59:25.957Z,16.40
2019-04-09T12:05:01.167Z,16.50
2019-04-09T12:10:32.397Z,16.90
2019-04-09T12:16:13.159Z,16.90
2019-04-09T12:22:00.689Z,16.60
2019-04-09T12:27:50.759Z,16.40
2019-04-09T12:33:21.790Z,16.70
2019-04-09T12:38:55.801Z,17.40
2019-04-09T12:44:38.801Z,18.10
2019-04-09T12:50:09.881Z,18.40
2019-04-09T12:55:56.415Z,18.30
2019-04-09T13:01:33.159Z,17.90
2019-04-09T13:07:16.892Z,18.00
2019-04-09T13:12:52.096Z,18.30
2019-04-09T13:18:26.501Z,18.60
2019-04-09T13:23:57.430Z,18.60
2019-04-09T13:29:37.150Z,18.40
2019-04-09T13:35:15.145Z,18.40
2019-04-09T13:40:49.509Z,18.70
2019-04-09T13:46:24.293Z,19.20
2019-04-09T13:52:01.185Z,19.30
2019-04-09T13:57:30.478Z,19.00
2019-04-09T14:03:21.861Z,19.50
2019-04-09T14:08:39.296Z,19.60
2019-04-09T14:14:08.765Z,20.30
2019-04-09T14:19:49.175Z,21.40
2019-04-09T14:25:10.415Z,21.10
2019-04-09T14:30:40.846Z,20.00
2019-04-09T14:36:10.211Z,19.40
2019-04-09T14:41:39.504Z,19.30
2019-04-09T14:47:08.810Z,19.30
2019-04-09T14:52:50.838Z,20.00
2019-04-09T14:58:09.320Z,21.50
2019-04-09T15:03:38.677Z,22.20
2019-04-09T15:09:11.244Z,21.50
2019-04-09T15:14:40.612Z,19.90
2019-04-09T15:20:11.299Z,19.00
2019-04-09T15:25:42.230Z,18.40
2019-04-09T15:31:12.793Z,18.20
2019-04-09T15:36:43.146Z,18.50
2019-04-09T15:42:13.622Z,19.20
2019-04-09T15:47:43.425Z,19.60
2019-04-09T15:53:24.605Z,19.50
2019-04-09T15:58:43.804Z,19.30
2019-04-09T16:04:13.162Z,19.00
2019-04-09T16:09:44.105Z,18.60
2019-04-09T16:15:14.644Z,18.30
2019-04-09T16:20:44.957Z,17.70
2019-04-09T16:26:14.660Z,17.30
2019-04-09T16:31:44.736Z,17.20
2019-04-09T16:37:16.956Z,16.90
2019-04-09T16:42:46.866Z,16.60
2019-04-09T16:48:16.973Z,16.40
2019-04-09T16:53:47.235Z,16.20
2019-04-09T16:59:18.204Z,16.00
2019-04-09T17:04:47.546Z,15.80
2019-04-09T17:10:16.819Z,15.70
2019-04-09T17:15:46.176Z,15.50
2019-04-09T17:21:15.463Z,15.40
2019-04-09T17:26:49.269Z,15.20
2019-04-09T17:32:19.285Z,14.90
2019-04-09T17:37:48.643Z,14.60
2019-04-09T17:43:17.943Z,14.40
2019-04-09T17:48:47.297Z,14.20
2019-04-09T17:54:17.457Z,14.00
2019-04-09T17:59:48.056Z,13.90
2019-04-09T18:05:17.465Z,13.70
2019-04-09T18:10:47.494Z,13.60
2019-04-09T18:16:16.841Z,13.50
2019-04-09T18:21:47.012Z,13.40
2019-04-09T18:27:17.133Z,13.30
2019-04-09T18:32:47.632Z,13.20
2019-04-09T18:38:17.044Z,13.00
2019-04-09T18:43:46.728Z,12.90
2019-04-09T18:49:17.150Z,12.80
2019-04-09T18:54:46.421Z,12.70
2019-04-09T19:00:22.109Z,12.60
2019-04-09T19:05:51.489Z,12.60
2019-04-09T19:11:22.055Z,12.50
2019-04-09T19:16:52.726Z,12.50
2019-04-09T19:22:25.567Z,12.50
2019-04-09T19:27:57.722Z,12.40
2019-04-09T19:33:27.719Z,12.40
2019-04-09T19:38:57.477Z,12.40
2019-04-09T19:44:27.401Z,12.40
2019-04-09T19:49:56.951Z,12.40
2019-04-09T19:55:28.522Z,12.40
2019-04-09T20:00:58.138Z,12.30
2019-04-09T20:06:27.878Z,12.30
2019-04-09T20:11:58.366Z,12.20
2019-04-09T20:17:31.256Z,12.20
2019-04-09T20:23:01.661Z,12.20
2019-04-09T20:28:31.950Z,12.20
2019-04-09T20:34:01.661Z,12.10
2019-04-09T20:39:37.596Z,12.10
2019-04-09T20:45:02.570Z,12.10
2019-04-09T20:50:33.344Z,12.10
2019-04-09T20:56:02.905Z,12.10
2019-04-09T21:01:43.194Z,12.20
2019-04-09T21:07:12.919Z,12.10
2019-04-09T21:12:42.709Z,12.10
2019-04-09T21:18:12.380Z,12.10
2019-04-09T21:23:42.474Z,12.00
2019-04-09T21:29:12.480Z,11.90
2019-04-09T21:34:42.416Z,11.90
2019-04-09T21:40:12.067Z,11.80
2019-04-09T21:45:41.548Z,11.70
2019-04-09T21:51:11.160Z,11.60
2019-04-09T21:56:40.717Z,11.40
2019-04-09T22:02:10.444Z,11.30
2019-04-09T22:07:41.277Z,11.10
2019-04-09T22:13:11.014Z,11.00
2019-04-09T22:18:40.719Z,11.00
2019-04-09T22:24:30.658Z,10.90
2019-04-09T22:30:00.035Z,10.90
2019-04-09T22:35:29.352Z,10.80
2019-04-09T22:40:59.270Z,10.80
2019-04-09T22:46:28.844Z,10.70
2019-04-09T22:51:59.250Z,10.70
2019-04-09T22:57:28.946Z,10.60
2019-04-09T23:03:16.341Z,10.60
2019-04-09T23:08:59.607Z,10.50
2019-04-09T23:14:29.109Z,10.50
2019-04-09T23:19:58.584Z,10.50
2019-04-09T23:25:28.727Z,10.40
2019-04-09T23:30:58.676Z,10.30
2019-04-09T23:36:28.133Z,10.30
2019-04-09T23:41:57.460Z,10.20
2019-04-09T23:47:26.995Z,10.20
2019-04-09T23:52:56.860Z,10.20
2019-04-09T23:58:27.094Z,10.20
